Mexico, Ohio
Current Conditions -  °F | °C
As of 6:53 PM on Friday 21 Nov 2014 (Local Time) from KMNN Reporting Station
Clear Clear  
Wind Chill:   Ceiling: Unl
Heat Index: 15°   Visibility: 10mi
Dew Point:   Wind: 5mph
Humidity: 74%   Direction: 180°S
Pressure: 30.45"   Gusts: NA
Location:  40.948°N, 83.1346°W
Report Text: KMNN 212353Z AUTO 18004KT 10SM CLR M09/M13 A3045 RMK AO2 SLP332 T10941133 11039 21094 58007 TSNO
Loading
Personal Weather Stations






























Interactive Weather Map New forecast layout! Learn more

10-Day Weather Forecast

Advertisements
Track Severe Weather on mobile